createdAt,value
2023-04-11T00:00:53.240Z,38.77
2023-04-11T00:01:53.408Z,38.69
2023-04-11T00:02:53.419Z,38.78
2023-04-11T00:03:53.425Z,39.09
2023-04-11T00:04:53.259Z,39.10
2023-04-11T00:05:53.308Z,38.71
2023-04-11T00:06:53.314Z,38.37
2023-04-11T00:07:53.374Z,38.30
2023-04-11T00:08:53.734Z,38.70
2023-04-11T00:09:53.504Z,39.12
2023-04-11T00:10:53.549Z,39.64
2023-04-11T00:11:53.621Z,39.16
2023-04-11T00:12:53.657Z,39.13
2023-04-11T00:13:53.632Z,38.98
2023-04-11T00:14:53.686Z,39.37
2023-04-11T00:15:53.709Z,39.24
2023-04-11T00:16:53.826Z,39.22
2023-04-11T00:17:53.885Z,39.71
2023-04-11T00:18:53.905Z,40.08
2023-04-11T00:19:53.703Z,40.12
2023-04-11T00:20:53.721Z,40.15
2023-04-11T00:21:54.597Z,39.96
2023-04-11T00:22:53.776Z,39.86
2023-04-11T00:23:53.779Z,39.72
2023-04-11T00:24:54.619Z,39.97
2023-04-11T00:25:53.787Z,40.14
2023-04-11T00:26:53.817Z,39.96
2023-04-11T00:27:53.807Z,39.77
2023-04-11T00:28:53.982Z,39.62
2023-04-11T00:29:53.774Z,39.73
2023-04-11T00:30:53.877Z,39.80
2023-04-11T00:31:53.886Z,39.64
2023-04-11T00:32:53.955Z,39.38
2023-04-11T00:33:53.823Z,39.38
2023-04-11T00:34:53.844Z,39.62
2023-04-11T00:35:54.677Z,39.90
2023-04-11T00:36:53.915Z,39.61
2023-04-11T00:37:53.880Z,39.60
2023-04-11T00:38:54.569Z,39.46
2023-04-11T00:39:54.020Z,39.35
2023-04-11T00:40:53.997Z,39.22
2023-04-11T00:41:54.000Z,39.15
2023-04-11T00:42:54.024Z,38.98
2023-04-11T00:43:54.066Z,38.74
2023-04-11T00:44:54.072Z,38.71
2023-04-11T00:45:54.117Z,38.59
2023-04-11T00:46:54.100Z,38.33
2023-04-11T00:47:54.150Z,38.46
2023-04-11T00:48:54.648Z,38.34
2023-04-11T00:49:54.097Z,38.27
2023-04-11T00:50:54.162Z,38.25
2023-04-11T00:51:54.534Z,38.26
2023-04-11T00:52:54.287Z,38.09
2023-04-11T00:53:54.619Z,38.02
2023-04-11T00:54:54.297Z,37.70
2023-04-11T00:55:54.295Z,37.91
2023-04-11T00:56:54.302Z,37.97
2023-04-11T00:57:54.351Z,38.04
2023-04-11T00:58:54.575Z,38.08
2023-04-11T00:59:54.415Z,38.11
2023-04-11T01:00:54.494Z,38.04
2023-04-11T01:01:54.633Z,38.03
2023-04-11T01:02:54.702Z,37.99
2023-04-11T01:03:54.734Z,38.09
2023-04-11T01:04:54.730Z,38.66
2023-04-11T01:05:54.817Z,38.66
2023-04-11T01:06:54.783Z,38.58
2023-04-11T01:07:54.795Z,38.63
2023-04-11T01:08:55.048Z,38.86
2023-04-11T01:09:54.802Z,38.98
2023-04-11T01:10:54.774Z,38.93
2023-04-11T01:11:54.799Z,38.95
2023-04-11T01:12:54.769Z,39.47
2023-04-11T01:13:54.792Z,39.72
2023-04-11T01:14:54.875Z,39.97
2023-04-11T01:15:55.201Z,39.60
2023-04-11T01:16:54.958Z,39.83
2023-04-11T01:17:54.978Z,39.54
2023-04-11T01:18:55.142Z,39.48
2023-04-11T01:19:55.012Z,39.42
2023-04-11T01:20:55.072Z,39.55
2023-04-11T01:21:55.097Z,39.69
2023-04-11T01:22:55.134Z,39.81
2023-04-11T01:23:55.167Z,40.00
2023-04-11T01:24:55.202Z,39.64
2023-04-11T01:25:55.573Z,39.50
2023-04-11T01:26:55.629Z,39.71
2023-04-11T01:27:55.365Z,39.82
2023-04-11T01:28:55.521Z,39.88
2023-04-11T01:29:55.420Z,40.10
2023-04-11T01:30:55.566Z,39.87
2023-04-11T01:31:55.593Z,39.64
2023-04-11T01:32:56.365Z,39.46
2023-04-11T01:33:55.747Z,39.38
2023-04-11T01:34:55.744Z,39.20
2023-04-11T01:35:55.804Z,39.09
2023-04-11T01:36:55.836Z,39.13
2023-04-11T01:37:55.930Z,39.13
2023-04-11T01:38:56.434Z,39.42
2023-04-11T01:39:55.983Z,39.53
2023-04-11T01:40:55.937Z,39.52
2023-04-11T01:41:57.039Z,39.51
2023-04-11T01:42:56.056Z,39.38
2023-04-11T01:43:56.123Z,39.48
2023-04-11T01:44:56.159Z,39.67
2023-04-11T01:45:56.213Z,39.78
2023-04-11T01:46:56.282Z,40.15
2023-04-11T01:47:56.458Z,40.76
2023-04-11T01:48:56.606Z,40.42
2023-04-11T01:49:56.812Z,40.15
2023-04-11T01:50:56.464Z,39.83
2023-04-11T01:51:56.478Z,40.10
2023-04-11T01:52:56.459Z,40.25
2023-04-11T01:53:56.458Z,39.85
2023-04-11T01:54:56.808Z,40.08
2023-04-11T01:55:56.816Z,40.10
2023-04-11T01:56:56.531Z,40.12
2023-04-11T01:57:56.584Z,39.87
2023-04-11T01:58:57.909Z,39.88
2023-04-11T01:59:56.669Z,39.74
2023-04-11T02:00:56.677Z,39.86
2023-04-11T02:01:57.185Z,39.96
2023-04-11T02:02:56.815Z,39.81
2023-04-11T02:03:56.866Z,40.54
2023-04-11T02:04:57.152Z,40.72
2023-04-11T02:05:56.835Z,41.13
2023-04-11T02:06:56.878Z,41.88
2023-04-11T02:07:57.305Z,42.38
2023-04-11T02:08:57.212Z,42.26
2023-04-11T02:09:57.031Z,42.68
2023-04-11T02:10:57.034Z,43.60
2023-04-11T02:11:57.095Z,43.73
2023-04-11T02:12:57.151Z,43.32
2023-04-11T02:13:57.156Z,42.99
2023-04-11T02:14:57.173Z,43.06
2023-04-11T02:15:57.211Z,42.83
2023-04-11T02:16:57.319Z,42.65
2023-04-11T02:17:57.315Z,42.90
2023-04-11T02:18:57.549Z,42.74
2023-04-11T02:19:57.504Z,42.58
2023-04-11T02:20:57.481Z,42.72
2023-04-11T02:21:57.558Z,42.67
2023-04-11T02:22:57.544Z,42.31
2023-04-11T02:23:57.703Z,42.12
2023-04-11T02:24:57.526Z,42.38
2023-04-11T02:25:57.514Z,42.14
2023-04-11T02:26:57.603Z,42.16
2023-04-11T02:27:57.518Z,43.13
2023-04-11T02:28:57.734Z,43.64
2023-04-11T02:29:57.534Z,43.29
2023-04-11T02:30:57.620Z,43.41
2023-04-11T02:31:57.713Z,43.46
2023-04-11T02:32:57.638Z,43.50
2023-04-11T02:33:57.576Z,43.66
2023-04-11T02:34:57.617Z,43.48
2023-04-11T02:35:57.632Z,43.15
2023-04-11T02:36:57.697Z,42.78
2023-04-11T02:37:57.701Z,42.45
2023-04-11T02:38:57.760Z,42.20
2023-04-11T02:39:57.837Z,42.14
2023-04-11T02:40:57.825Z,41.98
2023-04-11T02:41:57.824Z,41.74
2023-04-11T02:42:58.136Z,41.60
2023-04-11T02:43:57.854Z,41.48
2023-04-11T02:44:58.145Z,41.61
2023-04-11T02:46:05.826Z,41.48
2023-04-11T02:46:58.871Z,41.18
2023-04-11T02:47:57.890Z,41.09
2023-04-11T02:48:58.029Z,41.09
2023-04-11T02:49:57.823Z,41.20
2023-04-11T02:50:57.801Z,41.57
2023-04-11T02:51:57.879Z,41.47
2023-04-11T02:52:57.836Z,41.57
2023-04-11T02:53:57.794Z,41.48
2023-04-11T02:54:57.763Z,41.39
2023-04-11T02:55:57.792Z,41.26
2023-04-11T02:56:57.806Z,41.77
2023-04-11T02:57:57.713Z,41.28
2023-04-11T02:58:58.113Z,40.77
2023-04-11T02:59:57.813Z,40.48
2023-04-11T03:00:57.856Z,40.71
2023-04-11T03:01:58.003Z,40.73
2023-04-11T03:02:57.975Z,40.75
2023-04-11T03:03:57.993Z,41.13
2023-04-11T03:04:57.932Z,41.65
2023-04-11T03:05:57.986Z,41.71
2023-04-11T03:06:57.968Z,41.39
2023-04-11T03:07:58.263Z,40.86
2023-04-11T03:08:58.254Z,40.58
2023-04-11T03:09:57.941Z,40.48
2023-04-11T03:10:57.929Z,40.64
2023-04-11T03:11:57.908Z,40.52
2023-04-11T03:12:57.927Z,40.92
2023-04-11T03:13:57.946Z,40.86
2023-04-11T03:14:58.006Z,40.62
2023-04-11T03:15:57.989Z,40.43
2023-04-11T03:16:57.968Z,40.25
2023-04-11T03:17:57.983Z,40.09
2023-04-11T03:18:58.027Z,39.96
2023-04-11T03:19:57.975Z,39.54
2023-04-11T03:20:58.098Z,39.47
2023-04-11T03:21:58.152Z,39.43
2023-04-11T03:22:58.216Z,39.93
2023-04-11T03:23:58.215Z,39.96
2023-04-11T03:24:58.234Z,39.97
2023-04-11T03:25:58.295Z,40.17
2023-04-11T03:26:58.402Z,40.52
2023-04-11T03:27:58.361Z,40.19
2023-04-11T03:28:58.388Z,39.81
2023-04-11T03:29:58.469Z,39.54
2023-04-11T03:30:58.525Z,39.39
2023-04-11T03:31:58.478Z,39.41
2023-04-11T03:32:58.563Z,39.53
2023-04-11T03:33:58.473Z,39.40
2023-04-11T03:34:58.486Z,39.42
2023-04-11T03:35:58.545Z,39.56
2023-04-11T03:36:58.542Z,39.46
2023-04-11T03:37:58.566Z,39.45
2023-04-11T03:38:58.586Z,39.46
2023-04-11T03:39:58.523Z,39.72
2023-04-11T03:40:58.646Z,40.79
2023-04-11T03:41:58.602Z,41.52
2023-04-11T03:42:58.594Z,41.65
2023-04-11T03:43:58.641Z,41.71
2023-04-11T03:44:58.736Z,41.71
2023-04-11T03:45:58.725Z,41.76
2023-04-11T03:46:58.823Z,41.96
2023-04-11T03:47:58.815Z,41.76
2023-04-11T03:48:58.882Z,42.07
2023-04-11T03:49:58.801Z,41.96
2023-04-11T03:50:58.915Z,41.93
2023-04-11T03:51:58.968Z,41.78
2023-04-11T03:52:59.037Z,41.91
2023-04-11T03:53:59.027Z,41.71
2023-04-11T03:54:59.104Z,41.65
2023-04-11T03:55:59.146Z,41.62
2023-04-11T03:56:59.183Z,41.47
2023-04-11T03:57:59.242Z,41.65
2023-04-11T03:58:59.297Z,42.27
2023-04-11T03:59:59.369Z,42.38
2023-04-11T04:00:59.273Z,43.01
2023-04-11T04:01:59.439Z,43.39
2023-04-11T04:02:59.510Z,43.60
2023-04-11T04:03:59.766Z,43.31
2023-04-11T04:04:59.450Z,43.20
2023-04-11T04:05:59.509Z,43.01
2023-04-11T04:06:59.484Z,42.86
2023-04-11T04:07:59.448Z,42.68
2023-04-11T04:08:59.453Z,42.66
2023-04-11T04:09:59.526Z,42.89
2023-04-11T04:10:59.455Z,42.68
2023-04-11T04:11:59.451Z,42.42
2023-04-11T04:12:59.532Z,42.26
2023-04-11T04:13:59.495Z,42.17
2023-04-11T04:14:59.477Z,42.37
2023-04-11T04:16:01.276Z,42.68
2023-04-11T04:16:59.560Z,42.92
2023-04-11T04:17:59.480Z,42.97
2023-04-11T04:18:59.463Z,43.07
2023-04-11T04:19:59.476Z,43.18
2023-04-11T04:20:59.468Z,43.13
2023-04-11T04:21:59.475Z,43.21
2023-04-11T04:22:59.461Z,43.33
2023-04-11T04:23:59.445Z,43.64
2023-04-11T04:24:59.420Z,43.46
2023-04-11T04:25:59.420Z,43.44
2023-04-11T04:26:59.446Z,43.69
2023-04-11T04:27:59.423Z,43.83
2023-04-11T04:28:59.427Z,43.79
2023-04-11T04:30:03.332Z,43.56
2023-04-11T04:31:00.502Z,43.55
2023-04-11T04:31:59.417Z,43.03
2023-04-11T04:32:59.744Z,42.86
2023-04-11T04:33:59.332Z,42.92
2023-04-11T04:34:59.370Z,43.06
2023-04-11T04:35:59.508Z,42.95
2023-04-11T04:36:59.448Z,42.96
2023-04-11T04:37:59.393Z,43.14
2023-04-11T04:38:59.374Z,42.97
2023-04-11T04:39:59.337Z,42.87
2023-04-11T04:40:59.349Z,43.28
2023-04-11T04:41:59.388Z,42.70
2023-04-11T04:42:59.326Z,42.79
2023-04-11T04:43:59.568Z,43.12
2023-04-11T04:44:59.321Z,43.03
2023-04-11T04:45:59.367Z,42.88
2023-04-11T04:46:59.303Z,42.64
2023-04-11T04:47:59.384Z,42.41
2023-04-11T04:49:01.675Z,42.26
2023-04-11T04:49:59.252Z,41.91
2023-04-11T04:50:59.283Z,41.68
2023-04-11T04:51:59.284Z,41.55
2023-04-11T04:52:59.274Z,41.56
2023-04-11T04:53:59.301Z,41.19
2023-04-11T04:54:59.255Z,41.08
2023-04-11T04:55:59.256Z,41.08
2023-04-11T04:56:59.277Z,41.15
2023-04-11T04:57:59.255Z,41.02
2023-04-11T04:58:59.224Z,40.88
2023-04-11T04:59:59.262Z,40.87
2023-04-11T05:00:59.236Z,40.64
2023-04-11T05:01:59.304Z,40.49
2023-04-11T05:03:00.003Z,40.57
2023-04-11T05:04:00.017Z,40.16
2023-04-11T05:04:59.242Z,40.43
2023-04-11T05:05:59.190Z,40.42
2023-04-11T05:06:59.289Z,40.83
2023-04-11T05:07:59.257Z,40.93
2023-04-11T05:08:59.172Z,40.93
2023-04-11T05:09:59.774Z,40.83
2023-04-11T05:10:59.140Z,40.94
2023-04-11T05:11:59.133Z,41.01
2023-04-11T05:12:59.142Z,40.99
2023-04-11T05:13:59.570Z,40.77
2023-04-11T05:14:59.222Z,40.55
2023-04-11T05:15:59.114Z,40.23
2023-04-11T05:16:59.203Z,40.08
2023-04-11T05:17:59.172Z,39.82
2023-04-11T05:18:59.087Z,39.77
2023-04-11T05:19:59.087Z,39.73
2023-04-11T05:20:59.151Z,39.76
2023-04-11T05:21:59.107Z,39.61
2023-04-11T05:22:59.910Z,39.59
2023-04-11T05:23:59.064Z,39.29
2023-04-11T05:24:59.097Z,39.27
2023-04-11T05:25:59.089Z,39.44
2023-04-11T05:26:59.234Z,39.32
2023-04-11T05:27:59.520Z,39.40
2023-04-11T05:28:59.202Z,39.83
2023-04-11T05:29:58.995Z,40.18
2023-04-11T05:31:00.818Z,41.14
2023-04-11T05:31:59.026Z,41.69
2023-04-11T05:32:59.429Z,41.66
2023-04-11T05:33:59.145Z,42.44
2023-04-11T05:34:59.488Z,42.89
2023-04-11T05:35:59.094Z,43.31
2023-04-11T05:36:59.045Z,43.51
2023-04-11T05:37:59.309Z,44.67
2023-04-11T05:38:59.892Z,44.50
2023-04-11T05:39:59.081Z,44.55
2023-04-11T05:40:59.148Z,44.65
2023-04-11T05:41:59.026Z,44.38
2023-04-11T05:42:59.313Z,44.70
2023-04-11T05:43:59.051Z,44.37
2023-04-11T05:44:59.110Z,44.73
2023-04-11T05:47:19.666Z,44.80
2023-04-11T05:48:19.083Z,44.33
2023-04-11T05:49:18.899Z,43.93
2023-04-11T05:50:19.001Z,43.68
2023-04-11T05:51:18.898Z,43.61
2023-04-11T05:52:19.455Z,43.56
2023-04-11T05:53:19.173Z,43.48
2023-04-11T05:54:19.236Z,43.52
2023-04-11T05:55:19.407Z,43.19
2023-04-11T05:56:19.246Z,42.95
2023-04-11T05:57:19.215Z,42.63
2023-04-11T05:58:19.468Z,42.31
2023-04-11T05:59:24.709Z,42.19
2023-04-11T06:00:19.845Z,42.12
2023-04-11T06:01:20.080Z,41.80
2023-04-11T06:02:19.440Z,40.97
2023-04-11T06:03:20.513Z,40.75
2023-04-11T06:04:19.612Z,40.52
2023-04-11T06:05:19.354Z,41.01
2023-04-11T06:06:19.295Z,40.53
2023-04-11T06:07:20.321Z,40.11
2023-04-11T06:08:19.320Z,40.30
2023-04-11T06:09:19.346Z,40.94
2023-04-11T06:10:19.386Z,41.09
2023-04-11T06:11:19.817Z,40.95
2023-04-11T06:12:19.102Z,40.61
2023-04-11T06:13:19.265Z,40.30
2023-04-11T06:14:19.908Z,39.73
2023-04-11T06:15:19.488Z,39.67
2023-04-11T06:16:19.428Z,39.50
2023-04-11T06:17:19.450Z,39.51
2023-04-11T06:18:20.260Z,39.50
2023-04-11T06:19:19.338Z,39.23
2023-04-11T06:20:19.431Z,39.08
2023-04-11T06:21:19.240Z,38.97
2023-04-11T06:22:19.272Z,39.30
2023-04-11T06:23:19.288Z,38.89
2023-04-11T06:24:19.443Z,38.79
2023-04-11T06:25:19.354Z,38.86
2023-04-11T06:26:19.402Z,38.72
2023-04-11T06:27:19.256Z,38.51
2023-04-11T06:28:19.307Z,38.45
2023-04-11T06:29:19.377Z,38.25
2023-04-11T06:30:19.430Z,38.27
2023-04-11T06:31:19.467Z,38.01
2023-04-11T06:32:19.790Z,37.97
2023-04-11T06:33:19.416Z,37.94
2023-04-11T06:34:19.358Z,37.92
2023-04-11T06:35:19.374Z,37.56
2023-04-11T06:36:19.470Z,37.52
2023-04-11T06:37:19.378Z,37.51
2023-04-11T06:38:20.874Z,37.53
2023-04-11T06:39:19.274Z,37.37
2023-04-11T06:40:19.253Z,37.19
2023-04-11T06:42:39.169Z,37.26
2023-04-11T06:43:39.986Z,37.21
2023-04-11T06:44:40.064Z,37.28
2023-04-11T06:45:39.106Z,37.29
2023-04-11T06:46:39.146Z,37.18
2023-04-11T06:47:39.922Z,37.18
2023-04-11T06:48:39.253Z,36.98
2023-04-11T06:49:39.973Z,37.08
2023-04-11T06:50:39.206Z,37.06
2023-04-11T06:51:39.172Z,37.03
2023-04-11T06:52:39.089Z,37.10
2023-04-11T06:53:39.046Z,37.07
2023-04-11T06:54:39.183Z,36.96
2023-04-11T06:55:39.136Z,36.99
2023-04-11T06:56:39.226Z,37.01
2023-04-11T06:57:39.138Z,36.86
2023-04-11T06:58:39.705Z,37.46
2023-04-11T06:59:39.891Z,38.08
2023-04-11T07:00:39.063Z,37.97
2023-04-11T07:01:39.362Z,38.37
2023-04-11T07:02:39.401Z,38.22
2023-04-11T07:03:39.767Z,38.05
2023-04-11T07:04:39.175Z,38.16
2023-04-11T07:05:39.670Z,38.45
2023-04-11T07:06:39.094Z,38.44
2023-04-11T07:07:39.093Z,38.60
2023-04-11T07:08:39.145Z,38.58
2023-04-11T07:09:40.249Z,38.41
2023-04-11T07:10:39.226Z,38.62
2023-04-11T07:11:39.035Z,39.05
2023-04-11T07:12:39.209Z,39.15
2023-04-11T07:13:39.255Z,39.28
2023-04-11T07:14:39.237Z,39.29
2023-04-11T07:15:39.207Z,39.52
2023-04-11T07:16:39.287Z,39.92
2023-04-11T07:17:39.395Z,40.16
2023-04-11T07:18:39.238Z,39.77
2023-04-11T07:19:39.208Z,40.32
2023-04-11T07:20:39.283Z,40.42
2023-04-11T07:21:39.203Z,40.81
2023-04-11T07:22:39.269Z,40.62
2023-04-11T07:23:40.127Z,40.55
2023-04-11T07:24:39.136Z,40.20
2023-04-11T07:25:39.084Z,40.28
2023-04-11T07:26:39.118Z,40.58
2023-04-11T07:27:39.133Z,40.17
2023-04-11T07:28:39.075Z,40.47
2023-04-11T07:29:39.102Z,40.45
2023-04-11T07:30:39.052Z,40.54
2023-04-11T07:31:39.115Z,40.26
2023-04-11T07:32:39.185Z,40.62
2023-04-11T07:33:39.505Z,40.30
2023-04-11T07:34:39.184Z,40.76
2023-04-11T07:35:39.167Z,40.67
2023-04-11T07:36:39.163Z,40.06
2023-04-11T07:37:39.174Z,40.55
2023-04-11T07:38:39.486Z,40.24
2023-04-11T07:39:39.243Z,40.09
2023-04-11T07:40:39.255Z,39.78
2023-04-11T07:41:39.456Z,39.48
2023-04-11T07:42:39.335Z,39.59
2023-04-11T07:43:39.572Z,39.49
2023-04-11T07:44:39.462Z,39.34
2023-04-11T07:45:39.709Z,38.98
2023-04-11T07:46:39.541Z,39.81
2023-04-11T07:47:39.603Z,39.83
2023-04-11T07:48:40.070Z,39.90
2023-04-11T07:49:39.592Z,40.58
2023-04-11T07:50:39.712Z,40.73
2023-04-11T07:51:39.715Z,40.65
2023-04-11T07:52:39.618Z,40.26
2023-04-11T07:53:39.690Z,40.25
2023-04-11T07:54:39.634Z,40.03
2023-04-11T07:55:39.577Z,39.93
2023-04-11T07:56:39.616Z,39.95
2023-04-11T07:57:40.296Z,39.09
2023-04-11T07:58:39.652Z,39.25
2023-04-11T07:59:39.604Z,38.99
2023-04-11T08:00:42.203Z,38.89
2023-04-11T08:01:39.693Z,38.87
2023-04-11T08:02:39.725Z,38.71
2023-04-11T08:03:39.659Z,38.48
2023-04-11T08:04:39.821Z,37.99
2023-04-11T08:05:39.586Z,37.91
2023-04-11T08:06:39.464Z,37.64
2023-04-11T08:07:39.445Z,37.63
2023-04-11T08:08:40.549Z,37.68
2023-04-11T08:09:39.461Z,37.46
2023-04-11T08:10:39.525Z,37.80
2023-04-11T08:11:39.530Z,37.71
2023-04-11T08:12:39.517Z,37.41
2023-04-11T08:13:39.555Z,37.16
2023-04-11T08:14:39.502Z,37.10
2023-04-11T08:15:39.486Z,37.23
2023-04-11T08:16:39.540Z,36.61
2023-04-11T08:17:39.561Z,36.77
2023-04-11T08:18:39.450Z,36.71
2023-04-11T08:19:39.504Z,36.76
2023-04-11T08:20:39.568Z,36.66
2023-04-11T08:21:39.413Z,36.35
2023-04-11T08:22:39.456Z,35.69
2023-04-11T08:23:39.436Z,35.61
2023-04-11T08:24:39.514Z,35.73
2023-04-11T08:25:39.449Z,35.99
2023-04-11T08:26:39.541Z,35.66
2023-04-11T08:27:39.387Z,35.62
2023-04-11T08:28:41.114Z,35.79
2023-04-11T08:29:39.989Z,35.87
2023-04-11T08:30:40.528Z,36.07
2023-04-11T08:31:39.737Z,35.83
2023-04-11T08:32:40.624Z,35.40
2023-04-11T08:33:39.819Z,35.20
2023-04-11T08:34:39.712Z,35.02
2023-04-11T08:35:39.833Z,35.26
2023-04-11T08:36:39.718Z,34.98
2023-04-11T08:37:39.785Z,35.04
2023-04-11T08:38:39.698Z,35.20
2023-04-11T08:39:40.056Z,35.24
2023-04-11T08:40:39.884Z,35.26
2023-04-11T08:41:39.660Z,34.74
2023-04-11T08:42:39.680Z,34.24
2023-04-11T08:43:39.655Z,34.57
2023-04-11T08:44:39.633Z,34.92
2023-04-11T08:45:39.667Z,34.91
2023-04-11T08:46:39.764Z,35.54
2023-04-11T08:47:39.759Z,35.86
2023-04-11T08:48:39.810Z,36.80
2023-04-11T08:49:40.537Z,35.99
2023-04-11T08:50:40.599Z,35.50
2023-04-11T08:51:39.722Z,35.59
2023-04-11T08:52:39.803Z,35.66
2023-04-11T08:53:40.040Z,36.07
2023-04-11T08:54:39.986Z,35.94
2023-04-11T08:55:39.862Z,35.99
2023-04-11T08:56:39.749Z,35.63
2023-04-11T08:57:39.854Z,35.78
2023-04-11T08:58:41.359Z,35.98
2023-04-11T08:59:39.766Z,35.95
2023-04-11T09:00:39.712Z,35.36
2023-04-11T09:01:39.833Z,35.38
2023-04-11T09:02:39.921Z,34.97
2023-04-11T09:03:39.877Z,34.91
2023-04-11T09:04:39.905Z,34.53
2023-04-11T09:05:39.934Z,34.68
2023-04-11T09:06:39.938Z,35.01
2023-04-11T09:07:39.828Z,36.66
2023-04-11T09:08:39.899Z,36.22
2023-04-11T09:09:39.932Z,36.04
2023-04-11T09:10:39.932Z,36.28
2023-04-11T09:11:39.958Z,36.06
2023-04-11T09:12:40.036Z,35.80
2023-04-11T09:13:40.087Z,35.94
2023-04-11T09:14:40.206Z,35.89
2023-04-11T09:15:40.107Z,36.69
2023-04-11T09:16:40.100Z,37.07
2023-04-11T09:17:40.168Z,38.70
2023-04-11T09:18:40.174Z,36.92
2023-04-11T09:19:40.089Z,37.35
2023-04-11T09:20:40.117Z,36.81
2023-04-11T09:21:40.222Z,37.03
2023-04-11T09:22:42.612Z,36.60
2023-04-11T09:23:40.537Z,37.20
2023-04-11T09:24:40.262Z,37.45
2023-04-11T09:25:40.130Z,37.30
2023-04-11T09:26:40.142Z,37.38
2023-04-11T09:27:40.176Z,37.20
2023-04-11T09:28:40.565Z,37.51
2023-04-11T09:29:40.221Z,37.57
2023-04-11T09:30:40.212Z,37.44
2023-04-11T09:31:40.317Z,38.53
2023-04-11T09:32:40.201Z,37.76
2023-04-11T09:33:40.441Z,38.22
2023-04-11T09:34:42.400Z,38.48
2023-04-11T09:35:40.103Z,38.53
2023-04-11T09:36:41.107Z,39.69
2023-04-11T09:37:40.131Z,40.37
2023-04-11T09:38:40.053Z,40.98
2023-04-11T09:39:40.700Z,41.97
2023-04-11T09:40:40.255Z,41.69
2023-04-11T09:41:40.053Z,41.65
2023-04-11T09:42:40.062Z,42.77
2023-04-11T09:43:40.087Z,42.39
2023-04-11T09:44:40.619Z,42.09
2023-04-11T09:45:51.719Z,42.81
2023-04-11T09:46:41.043Z,43.21
2023-04-11T09:47:41.389Z,44.06
2023-04-11T09:48:46.383Z,43.51
2023-04-11T09:49:40.992Z,43.31
2023-04-11T09:50:40.024Z,44.00
2023-04-11T09:51:40.469Z,42.19
2023-04-11T09:52:40.017Z,41.87
2023-04-11T09:53:40.000Z,42.28
2023-04-11T09:54:40.150Z,42.51
2023-04-11T09:55:39.944Z,41.99
2023-04-11T09:56:39.961Z,41.12
2023-04-11T09:57:39.962Z,41.08
2023-04-11T09:58:39.964Z,41.35
2023-04-11T09:59:40.044Z,41.94
2023-04-11T10:00:39.967Z,41.98
2023-04-11T10:01:40.096Z,42.12
2023-04-11T10:02:40.341Z,40.76
2023-04-11T10:03:40.119Z,41.30
2023-04-11T10:04:40.136Z,40.31
2023-04-11T10:05:40.104Z,41.13
2023-04-11T10:06:40.256Z,40.86
2023-04-11T10:07:40.329Z,41.07
2023-04-11T10:08:40.270Z,41.34
2023-04-11T10:09:40.434Z,41.02
2023-04-11T10:10:40.386Z,41.41
2023-04-11T10:11:40.478Z,40.70
2023-04-11T10:12:40.447Z,40.67
2023-04-11T10:13:40.402Z,40.70
2023-04-11T10:14:40.452Z,39.95
2023-04-11T10:15:40.452Z,40.05
2023-04-11T10:16:40.431Z,39.60
2023-04-11T10:17:40.613Z,40.55
2023-04-11T10:18:40.550Z,40.43
2023-04-11T10:19:40.550Z,40.74
2023-04-11T10:20:40.443Z,41.11
2023-04-11T10:21:40.515Z,40.75
2023-04-11T10:22:41.361Z,40.64
2023-04-11T10:23:40.615Z,40.57
2023-04-11T10:24:40.576Z,40.98
2023-04-11T10:25:40.594Z,40.55
2023-04-11T10:26:40.554Z,41.64
2023-04-11T10:27:40.494Z,40.29
2023-04-11T10:28:40.505Z,41.45
2023-04-11T10:29:40.636Z,41.58
2023-04-11T10:30:40.508Z,41.33
2023-04-11T10:31:40.601Z,41.04
2023-04-11T10:32:40.550Z,41.85
2023-04-11T10:33:40.508Z,41.53
2023-04-11T10:34:41.027Z,41.40
2023-04-11T10:35:40.569Z,42.31
2023-04-11T10:36:40.560Z,43.60
2023-04-11T10:37:43.812Z,43.83
2023-04-11T10:38:41.922Z,44.42
2023-04-11T10:39:41.061Z,43.85
2023-04-11T10:40:40.680Z,43.75
2023-04-11T10:41:40.704Z,44.05
2023-04-11T10:42:40.749Z,43.54
2023-04-11T10:43:40.885Z,43.58
2023-04-11T10:44:40.855Z,44.08
2023-04-11T10:45:40.689Z,43.88
2023-04-11T10:46:42.768Z,43.64
2023-04-11T10:47:40.681Z,44.06
2023-04-11T10:48:40.656Z,45.31
2023-04-11T10:49:40.709Z,45.80
2023-04-11T10:50:40.724Z,46.09
2023-04-11T10:51:40.622Z,47.40
2023-04-11T10:52:40.637Z,48.35
2023-04-11T10:53:40.539Z,48.54
2023-04-11T10:54:40.681Z,49.08
2023-04-11T10:55:40.851Z,48.09
2023-04-11T10:56:40.501Z,47.95
2023-04-11T10:57:40.592Z,48.68
2023-04-11T10:58:40.673Z,48.47
2023-04-11T10:59:41.223Z,48.73
2023-04-11T11:00:40.806Z,48.78
2023-04-11T11:02:41.175Z,49.40
2023-04-11T11:03:40.848Z,49.78
2023-04-11T11:04:41.024Z,49.76
2023-04-11T11:05:40.637Z,51.03
2023-04-11T11:06:47.333Z,50.22
2023-04-11T11:07:42.514Z,49.40
2023-04-11T11:08:42.265Z,48.65
2023-04-11T11:09:42.311Z,48.68
2023-04-11T11:10:41.546Z,48.48
2023-04-11T11:11:40.592Z,48.59
2023-04-11T11:12:40.845Z,49.11
2023-04-11T11:13:42.744Z,48.43
2023-04-11T11:14:40.521Z,49.32
2023-04-11T11:15:40.749Z,48.33
2023-04-11T11:16:40.711Z,47.44
2023-04-11T11:17:40.614Z,47.05
2023-04-11T11:18:40.634Z,45.37
2023-04-11T11:19:40.616Z,44.42
2023-04-11T11:20:40.522Z,44.20
2023-04-11T11:21:40.556Z,45.48
2023-04-11T11:22:40.536Z,46.68
2023-04-11T11:23:40.627Z,47.11
2023-04-11T11:24:40.649Z,47.65
2023-04-11T11:25:41.110Z,46.41
2023-04-11T11:26:41.394Z,45.87
2023-04-11T11:27:41.492Z,46.29
2023-04-11T11:28:42.842Z,45.07
2023-04-11T11:29:41.187Z,45.97
2023-04-11T11:30:41.333Z,45.45
2023-04-11T11:31:41.329Z,45.01
2023-04-11T11:32:41.276Z,44.68
2023-04-11T11:33:41.115Z,45.54
2023-04-11T11:34:41.657Z,46.12
2023-04-11T11:35:41.138Z,45.42
2023-04-11T11:36:41.075Z,45.65
2023-04-11T11:37:41.181Z,45.45
2023-04-11T11:38:40.863Z,46.09
2023-04-11T11:39:41.064Z,46.48
2023-04-11T11:40:40.895Z,47.34
2023-04-11T11:41:41.678Z,46.60
2023-04-11T11:42:40.983Z,46.12
2023-04-11T11:43:40.971Z,45.96
2023-04-11T11:44:41.004Z,47.05
2023-04-11T11:45:40.990Z,47.86
2023-04-11T11:46:40.961Z,47.11
2023-04-11T11:47:42.329Z,46.86
2023-04-11T11:48:41.035Z,46.92
2023-04-11T11:49:41.059Z,47.40
2023-04-11T11:50:41.045Z,47.67
2023-04-11T11:51:40.962Z,47.71
2023-04-11T11:52:41.053Z,47.56
2023-04-11T11:53:41.083Z,47.58
2023-04-11T11:54:40.967Z,48.28
2023-04-11T11:55:41.111Z,48.21
2023-04-11T11:56:41.019Z,49.11
2023-04-11T11:57:41.222Z,49.66
2023-04-11T11:58:42.119Z,50.23
2023-04-11T11:59:41.131Z,49.62
2023-04-11T12:00:41.100Z,48.53
2023-04-11T12:01:41.040Z,48.34
2023-04-11T12:02:41.192Z,47.96
2023-04-11T12:03:41.182Z,47.96
2023-04-11T12:04:41.290Z,49.17
2023-04-11T12:05:41.026Z,48.06
2023-04-11T12:06:40.970Z,48.53
2023-04-11T12:07:41.057Z,48.28
2023-04-11T12:08:40.989Z,48.07
2023-04-11T12:09:40.968Z,48.17
2023-04-11T12:10:41.098Z,47.72
2023-04-11T12:11:41.089Z,47.68
2023-04-11T12:12:41.223Z,47.95
2023-04-11T12:13:41.036Z,48.99
2023-04-11T12:14:41.052Z,49.30
2023-04-11T12:15:41.287Z,48.79
2023-04-11T12:16:41.008Z,49.32
2023-04-11T12:17:41.246Z,49.54
2023-04-11T12:18:41.043Z,48.97
2023-04-11T12:19:41.042Z,48.37
2023-04-11T12:20:41.068Z,47.18
2023-04-11T12:21:40.971Z,46.57
2023-04-11T12:22:41.018Z,45.71
2023-04-11T12:23:40.976Z,45.26
2023-04-11T12:24:41.002Z,44.98
2023-04-11T12:25:40.990Z,44.50
2023-04-11T12:26:57.540Z,43.88
2023-04-11T12:27:40.987Z,44.58
2023-04-11T12:28:40.974Z,44.21
2023-04-11T12:29:40.929Z,42.93
2023-04-11T12:30:40.970Z,43.21
2023-04-11T12:31:41.610Z,43.77
2023-04-11T12:32:40.939Z,43.92
2023-04-11T12:33:41.021Z,42.63
2023-04-11T12:34:40.891Z,41.30
2023-04-11T12:35:40.963Z,42.24
2023-04-11T12:36:40.879Z,41.93
2023-04-11T12:37:40.971Z,42.58
2023-04-11T12:38:41.063Z,42.77
2023-04-11T12:39:40.894Z,42.83
2023-04-11T12:40:40.902Z,42.63
2023-04-11T12:41:40.900Z,43.06
2023-04-11T12:42:48.965Z,45.12
2023-04-11T12:43:41.878Z,45.69
2023-04-11T12:44:40.825Z,45.31
2023-04-11T12:45:40.935Z,45.05
2023-04-11T12:46:40.815Z,44.70
2023-04-11T12:47:40.903Z,44.55
2023-04-11T12:48:40.889Z,44.47
2023-04-11T12:49:40.845Z,44.48
2023-04-11T12:50:40.853Z,44.62
2023-04-11T12:51:40.825Z,44.46
2023-04-11T12:52:40.809Z,44.14
2023-04-11T12:53:40.878Z,45.04
2023-04-11T12:54:40.871Z,44.77
2023-04-11T12:55:40.847Z,44.96
2023-04-11T12:56:40.819Z,45.49